KARB/ARB METAR and TAF weather

Enter ICAO airport designator
Station Type Date Time Source
KARB METAR 2018/06/25 01:53 UTC NOAA

KARB 250153Z 04003KT 10SM CLR 18/16 A3004 RMK AO2 SLP168 T01830156


Station Type Date Time Source
KARB Decoded METAR 2018/06/25 01:53 UTC NOAA

ANN ARBOR MUNICIPAL AIRPORT, MI, United States (KARB) 42-13N 083-45W 251M
Jun 24, 2018 - 09:53 PM EDT / 2018.06.25 0153 UTC
Wind: from the NE (040 degrees) at 3 MPH (3 KT):0
Visibility: 10 mile(s):0
Sky conditions: clear
Temperature: 64.9 F (18.3 C)
Dew Point: 60.1 F (15.6 C)
Relative Humidity: 84%
Pressure (altimeter): 30.04 in. Hg (1017 hPa)
ob: KARB 250153Z 04003KT 10SM CLR 18/16 A3004 RMK AO2 SLP168 T01830156
cycle: 2

Station Type Date Time Source
KARB TAF UTC NOAA

Error!


Example: see airport list